Aviation Digital Data Service (ADDS)

Output produced by METARs form (1841 UTC 29 September 2016)
found at http://www.aviationweather.gov/adds/metars/
 
KSEG 291753Z AUTO 09007KT 10SM -RA OVC016 16/14 A3028 RMK AO2 RAB1658 SLP253 P0000 60029 T01560144 10161 20144 50008
KSEG 291653Z AUTO 10005KT 10SM OVC017 16/14 A3028 RMK AO2 SLP255 T01610144
KSEG 291553Z AUTO 03005KT 10SM OVC016 16/14 A3028 RMK AO2 RAE05 SLP252 P0000 T01560144
KSEG 291506Z AUTO 03005KT 10SM SCT013 BKN020 OVC050 15/14 A3027 RMK AO2 RAE05 P0000 T01500144
KSEG 291453Z AUTO 03004KT 10SM -RA FEW010 BKN013 OVC055 15/15 A3026 RMK AO2 SLP245 P0012 60029 T01500150 50004
KSEG 291445Z AUTO 04005KT 4SM -RA BR SCT013 BKN020 OVC055 15/15 A3026 RMK AO2 P0012 T01500150
KSEG 291431Z AUTO 2 1/2SM +RA BR SCT013 BKN018 OVC046 15/15 A3026 RMK AO2 P0009 T01500150
KSEG 291353Z AUTO 05005KT 3SM RA BR OVC017 14/14 A3025 RMK AO2 SLP245 P0015 T01440144
KSEG 291335Z AUTO 05004KT 2SM RA BR OVC017 14/14 A3026 RMK AO2 P0010 T01440144
KSEG 291253Z AUTO 06004KT 6SM -RA BR OVC016 15/14 A3024 RMK AO2 RAE08B28 SLP240 P0002 T01500139
KSEG 291153Z AUTO 04004KT 10SM -RA OVC018 14/14 A3021 RMK AO2 SLP230 P0004 60022 70038 T01440139 10161 20139 53010
KSEG 291053Z AUTO 04005KT 8SM -RA OVC017 14/14 A3019 RMK AO2 SLP223 P0004 T01440139
KSEG 290953Z AUTO 02005KT 10SM -RA OVC016 14/14 A3018 RMK AO2 SLP220 P0011 T01390139
KSEG 290853Z AUTO 05007KT 7SM -RA OVC018 14/13 A3018 RMK AO2 SLP220 P0003 60003 T01440133 53005
KSEG 290753Z AUTO 06007KT 10SM -RA OVC019 15/13 A3018 RMK AO2 RAB0657E26B43 SLP220 P0000 T01500133
KSEG 290653Z AUTO 08006KT 10SM OVC018 16/13 A3017 RMK AO2 SLP214 T01560133
KSEG 290553Z AUTO 08009KT 10SM OVC019 16/13 A3017 RMK AO2 SLP214 60015 T01610133 10183 20161 51007
KSEG 290453Z AUTO 10006KT 10SM OVC019 16/14 A3016 RMK AO2 SLP211 T01610139 402440072
KSEG 290353Z AUTO VRB03KT 10SM OVC020 17/14 A3016 RMK AO2 SLP212 T01670144
KSEG 290253Z AUTO 09009G18KT 10SM OVC021 17/15 A3015 RMK AO2 RAE37 SLP207 P0002 60015 T01720150 51013
KSEG 290153Z AUTO 09006KT 4SM +RA BR OVC020 17/16 A3014 RMK AO2 RAB17 SLP206 P0013 T01720161
KSEG 290053Z AUTO 07006KT 10SM OVC023 18/16 A3013 RMK AO2 SLP201 T01830156
KSEG 290040Z AUTO 06007KT 10SM BKN023 OVC034 18/16 A3012 RMK AO2 T01830156
KSEG 282353Z AUTO 09006KT 10SM SCT050 BKN065 BKN090 18/16 A3011 RMK AO2 SLP195 60001 T01830156 10244 20183 51008
KSEG 282322Z AUTO 09006KT 10SM SCT024 BKN041 OVC050 18/16 A3010 RMK AO2 T01830161
KSEG 282253Z AUTO 08003KT 10SM BKN025 OVC044 18/17 A3010 RMK AO2 RAB12E39 SLP194 P0000 T01830167
KSEG 282249Z AUTO 08004KT 10SM BKN023 BKN028 OVC044 18/17 A3010 RMK AO2 RAB12E39 P0000
KSEG 282153Z AUTO 09007KT 10SM SCT026 OVC041 19/16 A3009 RMK AO2 SLP187 T01940156
KSEG 282108Z AUTO 10008KT 10SM BKN028 OVC034 20/15 A3008 RMK AO2 T02000150
KSEG 282053Z AUTO 13009KT 10SM BKN036 OVC044 21/15 A3007 RMK AO2 SLP182 60001 T02060150 50008
KSEG 281953Z AUTO 09005KT 10SM FEW044 SCT055 BKN090 21/15 A3007 RMK AO2 RAE13 SLP183 P0000 T02060150 TSNO
KSEG 281853Z AUTO 13011KT 7SM -RA FEW045 SCT055 OVC075 21/14 A3008 RMK AO2 RAB37 SLP184 P0001 T02060144
KSEG 281753Z AUTO 12010KT 10SM FEW080 OVC100 24/11 A3005 RMK AO2 SLP173 T02440111 10244 20089 58010
KSEG 281653Z AUTO 14013G20KT 10SM CLR 23/09 A3006 RMK AO2 SLP177 T02330094
KSEG 281553Z AUTO 00000KT 10SM BKN080 21/13 A3007 RMK AO2 SLP181 T02110128
KSEG 281453Z AUTO 00000KT 10SM OVC090 17/13 A3008 RMK AO2 SLP184 T01670128 53005
KSEG 281353Z AUTO 00000KT 10SM BKN095 15/12 A3007 RMK AO2 SLP181 T01500122
KSEG 281253Z AUTO 33003KT 10SM CLR 12/11 A3006 RMK AO2 SLP178 T01170111
KSEG 281153Z AUTO 00000KT 8SM CLR 09/09 A3006 RMK AO2 SLP180 T00890089 10089 20072 53012
KSEG 281053Z AUTO 00000KT 8SM CLR 07/07 A3005 RMK AO2 SLP174 T00720072 $
KSEG 280953Z AUTO 34003KT 9SM BKN080 08/08 A3003 RMK AO2 SLP170 T00780078 $
KSEG 280853Z AUTO 00000KT 10SM CLR 08/08 A3003 RMK AO2 SLP167 T00780078 53010 $
KSEG 280753Z AUTO 00000KT 9SM CLR 08/08 A3001 RMK AO2 SLP163 T00830083 $
KSEG 280653Z AUTO 31003KT 10SM CLR 08/08 A3000 RMK AO2 SLP158 T00830083 $